Hesperia, Michigan
Current Conditions -  °F | °C
As of 7:10 PM on Saturday 25 Oct 2014 (Local Time) from KFFX Reporting Station
Clear Clear  
Wind Chill: 14°   Ceiling: Unl
Heat Index: 14°   Visibility: 10mi
Dew Point: -2°   Wind: 15mph
Humidity: 34%   Direction: 290°WNW
Pressure: 29.82"   Gusts: 23mph
Location:  43.57°N, 86.04°W
Report Text: KFFX 252310Z AUTO 29013G20KT 10SM CLR 14/M02 A2982 RMK AO2 T01371018
Loading
Personal Weather Stations






























Interactive Weather Map
Tropical Storm Tracking
New forecast layout! Learn more

10-Day Weather Forecast

Advertisements
Track Severe Weather on mobile